Time;durP1;ratioP1;P1;durP2;ratioP2;P2;SDS_P1;SDS_P2;PMS_P1;PMS_P2;Temp;Humidity;BMP_temperature;BMP_pressure;BME280_temperature;BME280_humidity;BME280_pressure;Samples;Min_cycle;Max_cycle;Signal;HPM_P1;HPM_P2
2022/12/20 00:01:34;;;;;;;;;;;;;;;5.61;100.00;99961.25;6122498;23;20443;-83
2022/12/20 00:04:01;;;;;;;;;;;;;;;5.66;100.00;99957.66;6121444;23;19913;-82
2022/12/20 00:06:26;;;;;;;;;;;;;;;5.70;100.00;99964.59;6120911;23;19913;-90
2022/12/20 00:08:52;;;;;;;;;;;;;;;5.74;100.00;99953.13;6122750;23;19913;-82
2022/12/20 00:11:18;;;;;;;;;;;;;;;5.79;100.00;99939.00;6121509;23;19991;-82
2022/12/20 00:13:44;;;;;;;;;;;;;;;5.83;100.00;99937.16;6122323;23;19948;-84
2022/12/20 00:16:15;;;;;;;;;;;;;;;5.85;100.00;99937.97;6122585;23;19913;-84
2022/12/20 00:18:40;;;;;;;;;;;;;;;5.89;100.00;99934.41;6121024;23;19936;-84
2022/12/20 00:21:07;;;;;;;;;;;;;;;5.95;100.00;99920.22;6122782;23;19913;-87
2022/12/20 00:23:33;;;;;;;;;;;;;;;5.97;100.00;99927.22;6122665;23;19917;-84
2022/12/20 00:25:59;;;;;;;;;;;;;;;6.00;100.00;99923.69;6123164;23;19913;-82
2022/12/20 00:28:24;;;;;;;;;;;;;;;6.04;100.00;99925.34;6121084;23;20000;-84
2022/12/20 00:30:52;;;;;;;;;;;;;;;6.07;100.00;99916.53;6122262;23;20344;-86
2022/12/20 03:17:33;;;;;;;;;;;;;;;5.21;100.00;99788.59;6137995;22;19985;-87
2022/12/20 03:20:01;;;;;;;;;;;;;;;5.31;100.00;99785.78;6281211;22;20322;-85
2022/12/20 03:22:26;;;;;;;;;;;;;;;5.35;100.00;99777.81;6308090;22;19918;-85
2022/12/20 03:24:54;;;;;;;;;;;;;;;5.40;100.00;99782.97;6280979;22;20296;-84
2022/12/20 03:27:19;;;;;;;;;;;;;;;5.43;100.00;99775.88;6280784;22;19957;-85
2022/12/20 03:29:47;;;;;;;;;;;;;;;5.50;100.00;99788.88;6306354;22;19911;-84
2022/12/20 03:32:17;;;;;;;;;;;;;;;5.56;100.00;99792.25;6308596;22;19938;-89
2022/12/20 03:34:42;;;;;;;;;;;;;;;5.58;100.00;99787.81;6280776;22;19922;-86
2022/12/20 03:37:24;;;;;;;;;;;;;;;5.63;100.00;99792.97;6308080;22;19911;-86
2022/12/20 03:39:50;;;;;;;;;;;;;;;5.67;100.00;99784.13;6308159;22;19915;-86
2022/12/20 03:42:15;;;;;;;;;;;;;;;5.72;100.00;99781.38;6308093;22;19918;-88
2022/12/20 03:44:40;;;;;;;;;;;;;;;5.75;100.00;99794.47;6306556;22;19964;-85
2022/12/20 03:50:21;;;;;;;;;;;;;;;5.83;100.00;99800.41;6261069;22;19911;-94
2022/12/20 03:53:05;;;;;;;;;;;;;;;;;;;;;
2022/12/20 03:55:36;;;;;;;;;;;;;;;5.91;100.00;99797.59;6308789;22;19990;-95
2022/12/20 03:58:08;;;;;;;;;;;;;;;5.94;100.00;99794.91;6306624;22;19937;-90
2022/12/20 04:00:46;;;;;;;;;;;;;;;;;;;;;
2022/12/20 04:03:33;;;;;;;;;;;;;;;;;;;;;
2022/12/20 04:09:03;;;;;;;;;;;;;;;;;;;;;
2022/12/20 04:11:56;;;;;;;;;;;;;;;6.10;100.00;99790.16;6304290;22;19990;-94
2022/12/20 04:14:35;;;;;;;;;;;;;;;;;;;;;
2022/12/20 04:17:16;;;;;;;;;;;;;;;6.20;100.00;99786.41;6308134;22;19993;-88
2022/12/20 04:25:50;;;;;;;;;;;;;;;6.28;100.00;99770.41;6275180;22;19945;-88
2022/12/20 04:28:16;;;;;;;;;;;;;;;6.29;100.00;99764.25;6306119;22;19911;-89
2022/12/20 04:30:41;;;;;;;;;;;;;;;6.31;100.00;99763.31;6307484;22;19915;-89
2022/12/20 04:33:09;;;;;;;;;;;;;;;6.32;100.00;99757.16;6307743;22;19956;-86
2022/12/20 04:35:35;;;;;;;;;;;;;;;6.36;100.00;99764.03;6280343;22;20412;-86
2022/12/20 04:38:00;;;;;;;;;;;;;;;6.38;100.00;99771.03;6307636;22;19921;-88
2022/12/20 04:40:28;;;;;;;;;;;;;;;6.41;100.00;99765.72;6307959;22;19989;-88
2022/12/20 04:43:57;;;;;;;;;;;;;;;6.45;100.00;99762.09;6306708;22;20137;-89
2022/12/20 04:46:04;;;;;;;;;;;;;;;6.48;100.00;99762.03;6294140;22;19950;-87
2022/12/20 08:52:20;;;;;;;;;;;;;;;4.20;100.00;99662.88;6099142;22;19978;-82
2022/12/20 08:54:46;;;;;;;;;;;;;;;4.07;100.00;99661.34;6166146;22;19927;-82
2022/12/20 08:57:12;;;;;;;;;;;;;;;4.03;100.00;99664.94;6254188;22;19920;-83
2022/12/20 08:59:37;;;;;;;;;;;;;;;3.96;100.00;99661.56;6253741;22;19912;-81
2022/12/20 09:02:03;;;;;;;;;;;;;;;3.92;100.00;99665.13;6252920;22;19947;-82
2022/12/20 09:04:28;;;;;;;;;;;;;;;3.81;100.00;99653.09;6253943;22;19999;-82
2022/12/20 09:06:53;;;;;;;;;;;;;;;3.79;100.00;99659.22;6148545;22;19961;-82
2022/12/20 09:09:18;;;;;;;;;;;;;;;3.75;100.00;99649.69;6152283;23;19913;-84
2022/12/20 09:11:44;;;;;;;;;;;;;;;3.72;100.00;99650.63;6255878;22;19912;-82
2022/12/20 09:14:09;;;;;;;;;;;;;;;3.68;100.00;99648.91;6151092;22;19920;-82
2022/12/20 09:16:35;;;;;;;;;;;;;;;3.57;100.00;99653.47;6152876;22;19909;-82
2022/12/20 09:19:00;;;;;;;;;;;;;;;3.59;100.00;99652.56;6253932;22;19913;-81
2022/12/20 09:21:26;;;;;;;;;;;;;;;3.52;100.00;99656.16;6254217;22;19942;-81
2022/12/20 09:23:52;;;;;;;;;;;;;;;3.53;100.00;99662.28;6253882;22;20026;-82
2022/12/20 09:26:18;;;;;;;;;;;;;;;3.45;100.00;99665.03;6254727;22;19935;-82
2022/12/20 09:28:43;;;;;;;;;;;;;;;3.46;100.00;99664.13;6151113;22;20324;-83
2022/12/20 09:31:35;;;;;;;;;;;;;;;3.38;100.00;99671.25;6152077;23;19966;-82
2022/12/20 09:34:00;;;;;;;;;;;;;;;3.36;100.00;99673.88;6154805;22;19913;-82
2022/12/20 09:36:27;;;;;;;;;;;;;;;3.28;100.00;99667.91;6228540;23;19966;-81
2022/12/20 09:38:53;;;;;;;;;;;;;;;3.29;100.00;99682.72;6152064;23;19974;-81
2022/12/20 09:41:23;;;;;;;;;;;;;;;3.26;100.00;99675.78;6255730;22;19917;-82
2022/12/20 09:43:49;;;;;;;;;;;;;;;3.23;100.00;99672.34;6152126;22;19924;-81
2022/12/20 09:46:15;;;;;;;;;;;;;;;3.28;100.00;99670.53;6152211;22;19913;-81
2022/12/20 09:48:41;;;;;;;;;;;;;;;3.24;100.00;99664.47;6151794;22;19992;-81
2022/12/20 09:51:12;;;;;;;;;;;;;;;3.18;100.00;99664.56;6151776;22;20324;-81
2022/12/20 09:53:47;;;;;;;;;;;;;;;3.21;100.00;99658.41;6254349;22;19999;-82
2022/12/20 09:56:17;;;;;;;;;;;;;;;3.18;100.00;99661.09;6254796;22;19924;-82
2022/12/20 09:58:43;;;;;;;;;;;;;;;3.14;100.00;99652.38;6254417;22;19928;-82
2022/12/20 10:01:27;;;;;;;;;;;;;;;3.14;100.00;99651.53;6152656;23;20240;-82
2022/12/20 10:03:53;;;;;;;;;;;;;;;3.05;100.00;99648.16;6151679;22;19923;-82
2022/12/20 10:06:25;;;;;;;;;;;;;;;3.07;100.00;99645.53;6150595;22;19991;-81
2022/12/20 10:08:55;;;;;;;;;;;;;;;3.09;100.00;99642.00;6152060;23;19909;-82
2022/12/20 10:14:23;;;;;;;;;;;;;;;5.27;100.00;99622.13;6152760;23;19924;-83
2022/12/20 10:16:55;;;;;;;;;;;;;;;5.01;100.00;99620.06;6254763;22;19913;-87
2022/12/20 10:19:43;;;;;;;;;;;;;;;4.98;100.00;99607.00;6149848;23;20337;-84
2022/12/20 10:22:25;;;;;;;;;;;;;;;5.01;100.00;99601.69;6151148;22;19913;-90
2022/12/20 10:25:01;;;;;;;;;;;;;;;5.11;100.00;99611.09;6251368;22;19948;-83
2022/12/20 10:27:27;;;;;;;;;;;;;;;5.18;100.00;99615.28;6255382;22;19920;-84
2022/12/20 10:29:52;;;;;;;;;;;;;;;5.24;100.00;99615.16;6254860;22;19916;-84
2022/12/20 10:32:19;;;;;;;;;;;;;;;5.31;100.00;99601.88;6255187;22;19912;-80
2022/12/20 10:35:07;;;;;;;;;;;;;;;5.38;100.00;99600.84;6151768;23;19912;-80
2022/12/20 10:37:33;;;;;;;;;;;;;;;5.45;100.00;99594.50;6158461;22;19961;-82
2022/12/20 10:39:58;;;;;;;;;;;;;;;5.52;100.00;99585.59;6254559;22;20547;-82
2022/12/20 10:42:32;;;;;;;;;;;;;;;5.56;100.00;99578.47;6152359;22;19913;-82
2022/12/20 10:44:57;;;;;;;;;;;;;;;5.59;100.00;99574.00;6151205;22;19916;-82
2022/12/20 10:47:32;;;;;;;;;;;;;;;5.63;100.00;99580.91;6279817;22;20029;-82
2022/12/20 10:50:08;;;;;;;;;;;;;;;5.70;100.00;99579.00;6151541;22;20054;-82
2022/12/20 10:52:34;;;;;;;;;;;;;;;5.73;100.00;99580.69;6150961;22;19951;-81
2022/12/20 10:54:59;;;;;;;;;;;;;;;5.79;100.00;99577.88;6152170;22;19916;-82
2022/12/20 10:57:26;;;;;;;;;;;;;;;5.81;100.00;99578.72;6152681;22;19919;-82
2022/12/20 10:59:54;;;;;;;;;;;;;;;5.85;100.00;99571.59;6152119;23;19992;-81
2022/12/20 11:02:32;;;;;;;;;;;;;;;5.89;100.00;99574.09;6255423;22;19912;-82
2022/12/20 11:05:10;;;;;;;;;;;;;;;5.92;100.00;99571.41;6152146;22;19916;-82
2022/12/20 11:07:36;;;;;;;;;;;;;;;5.97;100.00;99568.69;6150717;22;19966;-81
2022/12/20 11:10:17;;;;;;;;;;;;;;;5.99;100.00;99564.22;6152222;22;20338;-82
2022/12/20 11:12:56;;;;;;;;;;;;;;;6.02;100.00;99560.66;6152391;23;19921;-85
2022/12/20 11:15:23;;;;;;;;;;;;;;;6.08;100.00;99560.47;6150848;22;19913;-82
2022/12/20 11:17:50;;;;;;;;;;;;;;;6.09;100.00;99551.69;6152003;23;19913;-82
2022/12/20 11:20:27;;;;;;;;;;;;;;;6.12;100.00;99541.06;6152074;23;19913;-82
2022/12/20 11:23:11;;;;;;;;;;;;;;;6.15;100.00;99538.34;6150510;23;19912;-82
2022/12/20 11:25:52;;;;;;;;;;;;;;;6.17;100.00;99532.16;6254290;22;19920;-83
2022/12/20 11:28:18;;;;;;;;;;;;;;;6.22;100.00;99521.47;6254529;22;19912;-82
2022/12/20 11:31:02;;;;;;;;;;;;;;;6.26;100.00;99520.47;6253759;22;19917;-85
2022/12/20 11:33:28;;;;;;;;;;;;;;;6.26;100.00;99525.75;6254835;22;19913;-84
2022/12/20 11:35:53;;;;;;;;;;;;;;;6.30;100.00;99515.97;6152343;22;19989;-83
2022/12/20 11:38:34;;;;;;;;;;;;;;;6.30;100.00;99514.25;6253276;22;19991;-83
2022/12/20 11:41:18;;;;;;;;;;;;;;;6.33;100.00;99505.38;6254966;22;20217;-83
2022/12/20 11:43:55;;;;;;;;;;;;;;;6.39;100.00;99499.06;6253860;22;20239;-83
2022/12/20 11:46:41;;;;;;;;;;;;;;;6.41;100.00;99494.63;6152292;22;19913;-83
2022/12/20 11:49:09;;;;;;;;;;;;;;;6.43;100.00;99483.16;6151625;22;19919;-83
2022/12/20 11:51:35;;;;;;;;;;;;;;;5.74;100.00;99485.13;6253445;22;20688;-83
2022/12/20 11:54:06;;;;;;;;;;;;;;;5.04;100.00;99478.19;6254549;22;19917;-83
2022/12/20 11:59:57;;;;;;;;;;;;;;;4.47;100.00;99458.59;6185530;22;19988;-86
2022/12/20 12:02:41;;;;;;;;;;;;;;;4.41;100.00;99451.69;6151173;23;19987;-85
2022/12/20 12:05:15;;;;;;;;;;;;;;;4.28;100.00;99445.03;6151827;23;19908;-82
2022/12/20 12:07:43;;;;;;;;;;;;;;;4.12;100.00;99453.22;6150260;23;20240;-82
2022/12/20 12:10:08;;;;;;;;;;;;;;;3.98;100.00;99448.25;6253468;22;19909;-84
2022/12/20 12:12:42;;;;;;;;;;;;;;;3.92;100.00;99448.38;6150455;22;19988;-82
2022/12/20 12:15:14;;;;;;;;;;;;;;;3.88;100.00;99453.72;6151686;23;19938;-85
2022/12/20 12:17:59;;;;;;;;;;;;;;;3.80;100.00;99470.50;6253963;22;19917;-83
2022/12/20 12:20:35;;;;;;;;;;;;;;;3.73;100.00;99461.00;6253690;22;19916;-83
2022/12/20 12:23:04;;;;;;;;;;;;;;;3.63;100.00;99460.34;6149523;23;19919;-83
2022/12/20 12:25:30;;;;;;;;;;;;;;;3.56;100.00;99455.28;6151512;22;19991;-87
2022/12/20 12:27:55;;;;;;;;;;;;;;;3.51;100.00;99455.34;6151196;22;19967;-83
2022/12/20 12:30:21;;;;;;;;;;;;;;;3.53;100.00;99463.19;6151499;23;19958;-83
2022/12/20 12:32:52;;;;;;;;;;;;;;;3.43;100.00;99460.75;6152000;22;19912;-82
2022/12/20 12:35:36;;;;;;;;;;;;;;;3.35;100.00;99457.41;6151611;23;19917;-83
2022/12/20 12:38:15;;;;;;;;;;;;;;;3.38;100.00;99453.84;6149934;23;19920;-83
2022/12/20 12:40:40;;;;;;;;;;;;;;;3.29;100.00;99447.03;6151132;23;19917;-83
2022/12/20 12:43:08;;;;;;;;;;;;;;;3.34;100.00;99453.03;6151138;22;20324;-83
2022/12/20 12:45:56;;;;;;;;;;;;;;;;;;;;;
2022/12/20 12:48:26;;;;;;;;;;;;;;;3.22;100.00;99450.66;6151017;23;19987;-83
2022/12/20 12:50:56;;;;;;;;;;;;;;;3.21;100.00;99443.69;6254111;22;20339;-83
2022/12/20 12:53:26;;;;;;;;;;;;;;;3.11;100.00;99442.13;6149668;22;19956;-82
2022/12/20 12:56:20;;;;;;;;;;;;;;;3.15;100.00;99435.94;6151215;23;19966;-83
2022/12/20 12:59:05;;;;;;;;;;;;;;;3.02;100.00;99438.78;6152022;22;19912;-82
2022/12/20 13:02:16;;;;;;;;;;;;;;;3.07;100.00;99444.78;6150702;22;19912;-83
2022/12/20 13:04:53;;;;;;;;;;;;;;;3.03;100.00;99435.28;6195742;23;19919;-82
2022/12/20 13:07:34;;;;;;;;;;;;;;;2.98;100.00;99437.09;6210931;23;20032;-82
2022/12/20 13:10:23;;;;;;;;;;;;;;;2.95;100.00;99433.69;6170348;22;19959;-82
2022/12/20 13:12:49;;;;;;;;;;;;;;;2.91;100.00;99440.72;6178548;22;19912;-81
2022/12/20 13:15:20;;;;;;;;;;;;;;;2.98;100.00;99439.72;6150352;22;19913;-82
2022/12/20 13:17:48;;;;;;;;;;;;;;;2.84;100.00;99439.97;6150908;22;20085;-82
2022/12/20 13:20:22;;;;;;;;;;;;;;;3.00;100.00;99434.44;6150910;23;19958;-82
2022/12/20 13:23:06;;;;;;;;;;;;;;;3.30;100.00;99434.78;6149860;23;19913;-82
2022/12/20 13:25:31;;;;;;;;;;;;;;;3.87;100.00;99431.06;6151506;23;19913;-82
2022/12/20 13:28:18;;;;;;;;;;;;;;;4.21;100.00;99425.91;6151431;22;20374;-82
2022/12/20 13:30:45;;;;;;;;;;;;;;;4.48;100.00;99420.94;6150665;23;19916;-82
2022/12/20 13:33:36;;;;;;;;;;;;;;;4.63;100.00;99414.47;6253276;22;19924;-82
2022/12/20 13:36:03;;;;;;;;;;;;;;;4.78;100.00;99406.19;6150942;22;19915;-82
2022/12/20 13:38:29;;;;;;;;;;;;;;;4.91;100.00;99399.75;6252067;22;19920;-82
2022/12/20 13:40:59;;;;;;;;;;;;;;;5.02;100.00;99388.09;6151271;22;19908;-82
2022/12/20 13:43:24;;;;;;;;;;;;;;;5.11;100.00;99393.09;6151061;23;19958;-82
2022/12/20 13:46:07;;;;;;;;;;;;;;;5.18;100.00;99397.28;6150437;22;19909;-82
2022/12/20 13:48:38;;;;;;;;;;;;;;;5.26;100.00;99410.22;6254089;22;19913;-82
2022/12/20 13:51:04;;;;;;;;;;;;;;;5.33;100.00;99405.63;6150853;22;19917;-82
2022/12/20 13:53:30;;;;;;;;;;;;;;;5.38;100.00;99409.03;6149210;22;20251;-81
2022/12/20 13:55:55;;;;;;;;;;;;;;;5.44;100.00;99401.84;6254877;22;19951;-82
2022/12/20 13:58:23;;;;;;;;;;;;;;;5.49;100.00;99396.44;6254302;22;19912;-82
2022/12/20 14:00:49;;;;;;;;;;;;;;;5.51;100.00;99397.25;6255876;22;19935;-82
2022/12/20 14:03:26;;;;;;;;;;;;;;;5.58;100.00;99400.56;6255936;22;20320;-81
2022/12/20 14:06:00;;;;;;;;;;;;;;;5.64;100.00;99403.88;6255436;22;19912;-82
2022/12/20 14:08:28;;;;;;;;;;;;;;;5.67;100.00;99404.72;6150984;22;19923;-81
2022/12/20 14:10:53;;;;;;;;;;;;;;;5.72;100.00;99397.56;6151996;23;19959;-82
2022/12/20 14:13:22;;;;;;;;;;;;;;;5.74;100.00;99390.47;6152080;22;19919;-83
2022/12/20 14:15:48;;;;;;;;;;;;;;;5.77;100.00;99404.38;6152006;22;19917;-82
2022/12/20 14:18:24;;;;;;;;;;;;;;;5.81;100.00;99403.41;6152018;22;20387;-82
2022/12/20 14:20:52;;;;;;;;;;;;;;;5.85;100.00;99403.31;6151975;23;19913;-82
2022/12/20 14:23:22;;;;;;;;;;;;;;;5.90;100.00;99406.66;6150590;22;19969;-82
2022/12/20 14:26:09;;;;;;;;;;;;;;;5.95;100.00;99396.84;6254391;22;20317;-83
2022/12/20 14:28:43;;;;;;;;;;;;;;;5.96;100.00;99391.59;6151944;23;19923;-82
2022/12/20 14:31:26;;;;;;;;;;;;;;;5.98;100.00;99376.63;6151457;23;20311;-82
2022/12/20 14:34:03;;;;;;;;;;;;;;;6.00;100.00;99380.06;6151977;23;19916;-82
2022/12/20 14:36:30;;;;;;;;;;;;;;;6.04;100.00;99367.69;6254057;22;19919;-82
2022/12/20 14:38:55;;;;;;;;;;;;;;;6.09;100.00;99372.81;6254596;22;19913;-82
2022/12/20 14:41:32;;;;;;;;;;;;;;;6.13;100.00;99374.44;6254690;22;19919;-82
2022/12/20 14:44:00;;;;;;;;;;;;;;;6.14;100.00;99371.75;6151965;22;19919;-82
2022/12/20 14:46:25;;;;;;;;;;;;;;;6.18;100.00;99370.75;6255462;22;19913;-82
2022/12/20 14:49:09;;;;;;;;;;;;;;;6.18;100.00;99365.47;6255113;22;19919;-82
2022/12/20 14:51:34;;;;;;;;;;;;;;;6.22;100.00;99366.22;6150003;23;19951;-82
2022/12/20 14:54:01;;;;;;;;;;;;;;;6.24;100.00;99363.56;6151298;22;20245;-82
2022/12/20 14:56:26;;;;;;;;;;;;;;;6.26;100.00;99364.38;6152291;22;20380;-82
2022/12/20 14:59:15;;;;;;;;;;;;;;;6.28;100.00;99355.53;6254113;22;19916;-82
2022/12/20 15:01:41;;;;;;;;;;;;;;;6.32;100.00;99349.25;6152011;22;20350;-82
2022/12/20 15:04:20;;;;;;;;;;;;;;;6.34;100.00;99347.44;6152201;23;19909;-82
2022/12/20 15:06:47;;;;;;;;;;;;;;;6.39;100.00;99351.69;6252993;22;19945;-82
2022/12/20 15:09:13;;;;;;;;;;;;;;;6.39;100.00;99351.69;6254956;22;20275;-81
2022/12/20 15:11:40;;;;;;;;;;;;;;;6.40;100.00;99351.66;6253573;22;19954;-81
2022/12/20 15:14:20;;;;;;;;;;;;;;;6.33;100.00;99353.63;6254734;22;19913;-82
2022/12/20 15:16:47;;;;;;;;;;;;;;;5.28;100.00;99351.47;6151332;23;19995;-81
2022/12/20 15:19:12;;;;;;;;;;;;;;;4.84;100.00;99358.78;6253928;22;20320;-82
2022/12/20 15:21:41;;;;;;;;;;;;;;;4.69;100.00;99356.56;6252747;22;19970;-81
2022/12/20 15:24:11;;;;;;;;;;;;;;;4.55;100.00;99370.03;6150307;23;19995;-82
2022/12/20 15:26:37;;;;;;;;;;;;;;;4.38;100.00;99374.84;6151463;22;19983;-82
2022/12/20 15:29:03;;;;;;;;;;;;;;;4.31;100.00;99368.88;6150889;23;20276;-83
2022/12/20 15:31:28;;;;;;;;;;;;;;;4.21;100.00;99359.50;6255081;22;20233;-81
2022/12/20 15:33:56;;;;;;;;;;;;;;;4.11;100.00;99367.56;6255267;22;19912;-82
2022/12/20 15:36:25;;;;;;;;;;;;;;;4.29;100.00;99362.78;6253572;22;20245;-84
2022/12/20 15:38:50;;;;;;;;;;;;;;;4.30;100.00;99367.16;6151124;23;19935;-81
2022/12/20 15:41:16;;;;;;;;;;;;;;;4.03;100.00;99366.88;6151881;22;19948;-83
2022/12/20 15:43:41;;;;;;;;;;;;;;;3.93;100.00;99365.38;6253920;22;19913;-83
2022/12/20 15:46:06;;;;;;;;;;;;;;;3.82;100.00;99373.47;6251498;22;20313;-81
2022/12/20 15:48:31;;;;;;;;;;;;;;;3.75;100.00;99357.03;6254119;22;19924;-80
2022/12/20 15:50:58;;;;;;;;;;;;;;;3.66;100.00;99345.91;6151554;22;19920;-82
2022/12/20 15:53:26;;;;;;;;;;;;;;;3.59;100.00;99348.66;6149825;22;19951;-82
2022/12/20 15:55:52;;;;;;;;;;;;;;;3.56;100.00;99350.47;6253813;22;19913;-80
2022/12/20 15:58:17;;;;;;;;;;;;;;;3.51;100.00;99357.53;6253398;22;19923;-80
2022/12/20 16:00:42;;;;;;;;;;;;;;;3.45;100.00;99359.41;6149174;22;19921;-81
2022/12/20 16:03:15;;;;;;;;;;;;;;;3.42;100.00;99356.00;6150470;22;19917;-82
2022/12/20 16:05:41;;;;;;;;;;;;;;;3.37;100.00;99361.31;6149934;22;19913;-83
2022/12/20 16:08:06;;;;;;;;;;;;;;;3.33;100.00;99362.25;6150458;23;20350;-81
2022/12/20 16:10:31;;;;;;;;;;;;;;;3.32;100.00;99360.56;6253683;22;19999;-80
2022/12/20 16:12:56;;;;;;;;;;;;;;;3.31;100.00;99360.59;6151868;22;19912;-80
2022/12/20 16:15:22;;;;;;;;;;;;;;;3.22;100.00;99361.63;6151762;22;19983;-82
2022/12/20 16:17:47;;;;;;;;;;;;;;;3.16;100.00;99357.38;6150928;23;19966;-81
2022/12/20 16:20:12;;;;;;;;;;;;;;;3.18;100.00;99362.59;6151497;22;20324;-80
2022/12/20 16:22:38;;;;;;;;;;;;;;;3.11;100.00;99346.09;6150574;23;19913;-80
2022/12/20 16:25:04;;;;;;;;;;;;;;;3.09;100.00;99334.81;6151646;22;19916;-82
2022/12/20 16:27:29;;;;;;;;;;;;;;;3.08;100.00;99338.34;6151517;22;19938;-83
2022/12/20 16:32:58;;;;;;;;;;;;;;;3.04;100.00;99336.66;6136370;23;19912;-83
2022/12/20 16:35:30;;;;;;;;;;;;;;;3.03;100.00;99341.03;6151678;23;19970;-80
2022/12/20 16:37:56;;;;;;;;;;;;;;;3.00;100.00;99342.84;6253380;22;19913;-83
2022/12/20 16:40:22;;;;;;;;;;;;;;;2.99;100.00;99336.75;6151474;22;19920;-80
2022/12/20 16:42:48;;;;;;;;;;;;;;;2.99;100.00;99334.13;6151315;23;20317;-82
2022/12/20 16:45:18;;;;;;;;;;;;;;;2.98;100.00;99329.78;6150639;23;19916;-91
2022/12/20 16:47:44;;;;;;;;;;;;;;;2.92;100.00;99332.53;6150682;23;19940;-83
2022/12/20 16:50:10;;;;;;;;;;;;;;;2.90;100.00;99331.69;6150039;23;20317;-81
2022/12/20 16:52:36;;;;;;;;;;;;;;;2.88;100.00;99334.31;6149850;22;19912;-83
2022/12/20 16:55:02;;;;;;;;;;;;;;;2.89;100.00;99329.97;6254235;22;20346;-82
2022/12/20 16:57:27;;;;;;;;;;;;;;;2.84;100.00;99330.06;6151738;23;19919;-80
2022/12/20 16:59:53;;;;;;;;;;;;;;;2.83;100.00;99322.25;6253780;22;19916;-83
2022/12/20 17:02:26;;;;;;;;;;;;;;;2.94;100.00;99317.66;6254511;22;19912;-81
2022/12/20 17:04:53;;;;;;;;;;;;;;;3.22;100.00;99327.56;6151782;23;19917;-85
2022/12/20 17:07:19;;;;;;;;;;;;;;;3.57;100.00;99331.22;6149741;23;19913;-83
2022/12/20 17:09:44;;;;;;;;;;;;;;;3.99;100.00;99328.56;6151989;22;19913;-80
2022/12/20 17:12:14;;;;;;;;;;;;;;;4.27;100.00;99339.22;6151283;23;20313;-81
2022/12/20 17:14:39;;;;;;;;;;;;;;;4.48;100.00;99337.84;6151200;23;19913;-80
2022/12/20 17:17:04;;;;;;;;;;;;;;;4.63;100.00;99344.47;6151067;22;19920;-80
2022/12/20 17:19:29;;;;;;;;;;;;;;;4.76;100.00;99341.53;6254127;22;19958;-84
2022/12/20 17:21:55;;;;;;;;;;;;;;;4.86;100.00;99351.72;6149837;22;20351;-81
2022/12/20 17:24:21;;;;;;;;;;;;;;;4.96;100.00;99343.63;6151942;22;19919;-79
2022/12/20 17:26:46;;;;;;;;;;;;;;;5.03;100.00;99346.03;6151551;22;20296;-80
2022/12/20 17:29:11;;;;;;;;;;;;;;;5.12;100.00;99344.91;6151726;22;19912;-81
2022/12/20 17:31:38;;;;;;;;;;;;;;;5.21;100.00;99344.66;6152300;22;19917;-82
2022/12/20 17:34:04;;;;;;;;;;;;;;;5.27;100.00;99344.50;6153157;22;20239;-83
2022/12/20 17:36:29;;;;;;;;;;;;;;;5.33;100.00;99345.22;6151613;23;19912;-83
2022/12/20 17:38:54;;;;;;;;;;;;;;;5.37;100.00;99338.97;6152878;23;19999;-82
2022/12/20 17:44:17;;;;;;;;;;;;;;;5.51;100.00;99342.06;6151901;23;19935;-81
2022/12/20 17:47:11;;;;;;;;;;;;;;;5.54;100.00;99339.34;6255947;22;19913;-83
2022/12/20 17:49:36;;;;;;;;;;;;;;;5.58;100.00;99327.81;6152432;23;19913;-80
2022/12/20 17:52:01;;;;;;;;;;;;;;;5.64;100.00;99327.66;6151504;22;19942;-81
2022/12/20 17:54:27;;;;;;;;;;;;;;;5.69;100.00;99332.78;6152684;22;19917;-81
2022/12/20 17:56:53;;;;;;;;;;;;;;;5.73;100.00;99330.94;6247459;22;20369;-83
2022/12/20 17:59:19;;;;;;;;;;;;;;;5.76;100.00;99325.56;6152530;23;19995;-81
2022/12/20 18:01:45;;;;;;;;;;;;;;;5.80;100.00;99337.72;6152497;22;19920;-83
2022/12/20 18:04:12;;;;;;;;;;;;;;;5.82;100.00;99330.63;6152689;22;19913;-81
2022/12/20 18:06:38;;;;;;;;;;;;;;;5.85;100.00;99335.78;6150756;23;20313;-83
2022/12/20 18:09:04;;;;;;;;;;;;;;;5.89;100.00;99336.56;6151985;22;19921;-80
2022/12/20 18:11:30;;;;;;;;;;;;;;;5.91;100.00;99346.13;6152130;23;20354;-82
2022/12/20 18:13:56;;;;;;;;;;;;;;;5.95;100.00;99345.13;6152548;22;19913;-80
2022/12/20 18:16:26;;;;;;;;;;;;;;;5.98;100.00;99345.06;6152905;22;19912;-82
2022/12/20 18:18:54;;;;;;;;;;;;;;;6.02;100.00;99344.97;6152594;22;19991;-80
2022/12/20 18:21:21;;;;;;;;;;;;;;;6.03;100.00;99342.31;6151358;23;19913;-81
2022/12/20 18:23:46;;;;;;;;;;;;;;;6.06;100.00;99347.44;6152299;22;19928;-80
2022/12/20 18:26:12;;;;;;;;;;;;;;;6.09;100.00;99343.88;6152463;22;20328;-84
2022/12/20 18:28:50;;;;;;;;;;;;;;;6.11;100.00;99348.19;6152207;23;19913;-83
2022/12/20 18:31:18;;;;;;;;;;;;;;;6.14;100.00;99350.72;6152529;23;19913;-81
2022/12/20 18:33:44;;;;;;;;;;;;;;;6.16;100.00;99354.16;6255399;22;19970;-81
2022/12/20 18:36:11;;;;;;;;;;;;;;;6.20;100.00;99354.06;6152337;23;19989;-83
2022/12/20 18:38:56;;;;;;;;;;;;;;;6.22;100.00;99355.72;6253783;22;19913;-84
2022/12/20 18:41:23;;;;;;;;;;;;;;;6.25;100.00;99349.50;6249726;22;19913;-84
2022/12/20 18:43:49;;;;;;;;;;;;;;;6.27;100.00;99358.19;6152201;23;19923;-83
2022/12/20 18:46:19;;;;;;;;;;;;;;;6.29;100.00;99356.41;6151854;23;19983;-79
2022/12/20 18:48:44;;;;;;;;;;;;;;;6.30;100.00;99358.97;6151965;22;19917;-81
2022/12/20 18:51:11;;;;;;;;;;;;;;;6.33;100.00;99358.88;6151605;22;19943;-82
2022/12/20 18:53:37;;;;;;;;;;;;;;;6.35;100.00;99357.06;6150496;22;19916;-80
2022/12/20 18:56:03;;;;;;;;;;;;;;;6.39;100.00;99351.69;6152087;22;19912;-81
2022/12/20 18:58:29;;;;;;;;;;;;;;;6.40;100.00;99356.03;6152098;23;19912;-81
2022/12/20 19:00:58;;;;;;;;;;;;;;;6.44;100.00;99347.13;6152037;23;19965;-78
2022/12/20 19:03:23;;;;;;;;;;;;;;;6.46;100.00;99347.94;6152510;22;20256;-80
2022/12/20 19:05:55;;;;;;;;;;;;;;;5.83;100.00;99353.41;6151925;23;19915;-79
2022/12/20 19:08:21;;;;;;;;;;;;;;;5.03;100.00;99353.06;6150233;22;19994;-81
2022/12/20 19:10:47;;;;;;;;;;;;;;;4.80;100.00;99346.63;6151998;23;19916;-81
2022/12/20 19:13:12;;;;;;;;;;;;;;;4.67;100.00;99343.47;6152485;23;19919;-82
2022/12/20 19:15:37;;;;;;;;;;;;;;;4.50;100.00;99343.91;6150789;22;19913;-82
2022/12/20 19:18:26;;;;;;;;;;;;;;;4.41;100.00;99336.28;6149802;22;19917;-84
2022/12/20 19:20:51;;;;;;;;;;;;;;;4.29;100.00;99344.44;6161651;22;19924;-81
2022/12/20 19:23:19;;;;;;;;;;;;;;;4.24;100.00;99338.44;6149943;23;19912;-81
2022/12/20 19:25:45;;;;;;;;;;;;;;;4.09;100.00;99337.91;6150952;23;20325;-82
2022/12/20 19:28:10;;;;;;;;;;;;;;;4.02;100.00;99336.34;6152015;22;19992;-81
2022/12/20 19:30:35;;;;;;;;;;;;;;;3.97;100.00;99335.56;6151767;22;19913;-83
2022/12/20 19:33:00;;;;;;;;;;;;;;;3.90;100.00;99331.38;6151610;22;19983;-82
2022/12/20 19:38:41;;;;;;;;;;;;;;;3.76;100.00;99327.28;6154824;22;20290;-85
2022/12/20 19:41:06;;;;;;;;;;;;;;;3.74;100.00;99326.47;6151181;22;20343;-82
2022/12/20 19:43:32;;;;;;;;;;;;;;;3.61;100.00;99332.91;6254769;22;19912;-83
2022/12/20 19:45:57;;;;;;;;;;;;;;;3.57;100.00;99321.59;6151487;22;19912;-79
2022/12/20 19:48:22;;;;;;;;;;;;;;;3.60;100.00;99320.69;6151482;23;20395;-83
2022/12/20 19:50:47;;;;;;;;;;;;;;;3.51;100.00;99316.50;6150802;22;19912;-80
2022/12/20 19:53:13;;;;;;;;;;;;;;;3.50;100.00;99319.16;6149759;22;19966;-82
2022/12/20 19:55:38;;;;;;;;;;;;;;;3.47;100.00;99324.47;6151985;23;19917;-80
2022/12/20 19:58:03;;;;;;;;;;;;;;;3.34;100.00;99316.00;6151795;22;19916;-80
2022/12/20 20:00:28;;;;;;;;;;;;;;;3.37;100.00;99314.19;6252906;22;19916;-82
2022/12/20 20:02:54;;;;;;;;;;;;;;;3.31;100.00;99316.91;6253943;22;19917;-80
2022/12/20 20:05:19;;;;;;;;;;;;;;;3.29;100.00;99321.34;6253988;22;19912;-81
2022/12/20 20:07:45;;;;;;;;;;;;;;;3.30;100.00;99322.19;6150246;22;20447;-81
2022/12/20 20:10:10;;;;;;;;;;;;;;;3.21;100.00;99313.63;6252496;22;19920;-81
2022/12/20 20:12:37;;;;;;;;;;;;;;;3.21;100.00;99315.41;6253474;22;19913;-80
2022/12/20 20:15:03;;;;;;;;;;;;;;;3.18;100.00;99318.06;6151171;23;19923;-80
2022/12/20 20:17:28;;;;;;;;;;;;;;;3.15;100.00;99312.91;6253808;22;19917;-82
2022/12/20 20:19:53;;;;;;;;;;;;;;;3.09;100.00;99316.50;6151002;22;20368;-81
2022/12/20 20:22:19;;;;;;;;;;;;;;;3.14;100.00;99316.41;6149781;22;19923;-81